createdAt,value
2018-05-16T00:00:42.904Z,3.87
2018-05-16T00:03:12.212Z,5.70
2018-05-16T00:05:41.486Z,4.90
2018-05-16T00:08:10.709Z,3.73
2018-05-16T00:10:40.771Z,9.77
2018-05-16T00:13:10.800Z,8.63
2018-05-16T00:15:40.882Z,4.60
2018-05-16T00:18:10.157Z,3.53
2018-05-16T00:20:39.519Z,6.13
2018-05-16T00:23:08.793Z,3.07
2018-05-16T00:25:38.101Z,3.80
2018-05-16T00:28:08.164Z,4.00
2018-05-16T00:30:37.446Z,3.80
2018-05-16T00:33:06.735Z,4.03
2018-05-16T00:35:36.930Z,3.30
2018-05-16T00:38:06.259Z,4.90
2018-05-16T00:40:36.439Z,5.07
2018-05-16T00:43:05.742Z,4.03
2018-05-16T00:45:35.024Z,3.77
2018-05-16T00:48:04.311Z,3.23
2018-05-16T00:50:33.670Z,4.23
2018-05-16T00:53:03.703Z,3.90
2018-05-16T00:55:33.753Z,4.57
2018-05-16T00:58:03.035Z,6.00
2018-05-16T01:00:32.296Z,7.33
2018-05-16T01:03:01.564Z,5.27
2018-05-16T01:05:30.834Z,3.97
2018-05-16T01:08:00.113Z,5.00
2018-05-16T01:10:30.182Z,9.53
2018-05-16T01:12:59.435Z,4.17
2018-05-16T01:15:28.958Z,6.03
2018-05-16T01:17:58.221Z,3.80
2018-05-16T01:20:27.521Z,7.60
2018-05-16T01:22:56.808Z,6.30
2018-05-16T01:25:26.077Z,7.70
2018-05-16T01:27:55.349Z,9.63
2018-05-16T01:30:24.746Z,9.67
2018-05-16T01:32:54.792Z,6.83
2018-05-16T01:35:24.034Z,4.63
2018-05-16T01:37:53.367Z,10.30
2018-05-16T01:40:23.396Z,5.00
2018-05-16T01:42:52.678Z,11.37
2018-05-16T01:45:22.711Z,7.80
2018-05-16T01:47:51.994Z,10.40
2018-05-16T01:50:22.014Z,5.00
2018-05-16T01:52:52.203Z,7.20
2018-05-16T01:55:21.447Z,3.70
2018-05-16T01:57:51.464Z,4.40
2018-05-16T02:00:20.722Z,6.43
2018-05-16T02:02:49.990Z,4.10
2018-05-16T02:05:19.266Z,6.47
2018-05-16T02:07:48.583Z,5.40
2018-05-16T02:10:17.853Z,4.87
2018-05-16T02:12:47.928Z,3.70
2018-05-16T02:15:17.187Z,4.10
2018-05-16T02:17:46.501Z,7.10
2018-05-16T02:20:15.814Z,6.40
2018-05-16T02:22:45.083Z,10.00
2018-05-16T02:25:14.369Z,4.83
2018-05-16T02:27:44.823Z,7.60
2018-05-16T02:30:14.113Z,11.53
2018-05-16T02:32:43.419Z,4.57
2018-05-16T02:35:12.724Z,3.90
2018-05-16T02:37:42.017Z,6.63
2018-05-16T02:40:11.319Z,4.27
2018-05-16T02:42:41.597Z,4.73
2018-05-16T02:45:11.661Z,4.20
2018-05-16T02:47:41.038Z,5.60
2018-05-16T02:50:11.078Z,10.53
2018-05-16T02:52:40.370Z,4.10
2018-05-16T02:55:10.401Z,9.50
2018-05-16T02:57:39.659Z,6.23
2018-05-16T03:00:08.942Z,8.73
2018-05-16T03:02:38.241Z,7.33
2018-05-16T03:05:07.545Z,4.63
2018-05-16T03:07:36.831Z,4.10
2018-05-16T03:10:06.129Z,4.40
2018-05-16T03:12:35.466Z,4.70
2018-05-16T03:15:05.512Z,4.03
2018-05-16T03:17:34.775Z,5.03
2018-05-16T03:20:04.100Z,8.13
2018-05-16T03:22:34.130Z,5.73
2018-05-16T03:25:03.410Z,5.27
2018-05-16T03:27:33.450Z,8.33
2018-05-16T03:30:02.726Z,5.47
2018-05-16T03:32:32.866Z,4.83
2018-05-16T03:35:02.151Z,11.50
2018-05-16T03:37:32.384Z,9.63
2018-05-16T03:40:01.689Z,8.63
2018-05-16T03:42:31.216Z,8.53
2018-05-16T03:45:00.502Z,4.50
2018-05-16T03:47:29.770Z,6.83
2018-05-16T03:49:59.034Z,10.90
2018-05-16T03:52:28.325Z,7.80
2018-05-16T03:54:57.769Z,4.10
2018-05-16T03:57:45.379Z,5.17
2018-05-16T04:00:32.369Z,6.20
2018-05-16T04:06:11.907Z,9.53
2018-05-16T04:08:41.203Z,6.87
2018-05-16T04:11:10.574Z,4.70
2018-05-16T04:13:39.879Z,6.63
2018-05-16T04:16:09.938Z,5.00
2018-05-16T04:18:39.210Z,8.67
2018-05-16T04:21:09.245Z,12.33
2018-05-16T04:23:38.533Z,4.60
2018-05-16T04:26:08.564Z,5.00
2018-05-16T04:28:38.586Z,4.13
2018-05-16T04:31:07.876Z,6.87
2018-05-16T04:33:37.278Z,8.10
2018-05-16T04:36:06.566Z,7.27
2018-05-16T04:38:36.641Z,5.47
2018-05-16T04:41:05.950Z,6.93
2018-05-16T04:43:35.260Z,6.97
2018-05-16T04:46:04.592Z,9.17
2018-05-16T04:48:34.637Z,12.10
2018-05-16T04:51:03.926Z,6.43
2018-05-16T04:53:33.969Z,6.00
2018-05-16T04:56:03.252Z,8.40
2018-05-16T04:58:32.519Z,7.20
2018-05-16T05:01:02.564Z,9.40
2018-05-16T05:03:32.570Z,8.57
2018-05-16T05:06:01.863Z,5.93
2018-05-16T05:08:31.881Z,5.80
2018-05-16T05:11:01.183Z,7.20
2018-05-16T05:13:30.419Z,10.17
2018-05-16T05:15:59.865Z,7.20
2018-05-16T05:18:29.182Z,5.23
2018-05-16T05:20:58.393Z,5.47
2018-05-16T05:23:27.692Z,5.20
2018-05-16T05:25:58.177Z,5.43
2018-05-16T05:28:27.442Z,8.47
2018-05-16T05:30:56.703Z,6.93
2018-05-16T05:33:26.918Z,5.00
2018-05-16T05:35:57.003Z,17.07
2018-05-16T05:38:26.323Z,4.60
2018-05-16T05:40:55.643Z,4.93
2018-05-16T05:43:24.963Z,5.73
2018-05-16T05:45:54.209Z,9.93
2018-05-16T05:48:23.505Z,6.10
2018-05-16T05:50:52.798Z,6.43
2018-05-16T05:53:22.089Z,4.13
2018-05-16T05:55:53.021Z,8.10
2018-05-16T05:58:23.056Z,5.57
2018-05-16T06:00:52.320Z,5.73
2018-05-16T06:03:21.588Z,10.37
2018-05-16T06:05:51.623Z,6.60
2018-05-16T06:08:21.822Z,4.90
2018-05-16T06:10:51.075Z,5.57
2018-05-16T06:13:20.333Z,9.93
2018-05-16T06:15:50.394Z,6.00
2018-05-16T06:18:19.661Z,7.10
2018-05-16T06:20:48.986Z,7.83
2018-05-16T06:23:18.326Z,10.13
2018-05-16T06:25:47.794Z,4.37
2018-05-16T06:28:17.040Z,4.63
2018-05-16T06:30:46.312Z,5.70
2018-05-16T06:33:15.589Z,5.83
2018-05-16T06:35:44.876Z,6.60
2018-05-16T06:38:14.850Z,6.07
2018-05-16T06:40:44.169Z,5.77
2018-05-16T06:43:14.242Z,8.83
2018-05-16T06:45:43.489Z,3.43
2018-05-16T06:48:13.539Z,10.50
2018-05-16T06:50:42.974Z,4.27
2018-05-16T06:53:12.221Z,4.53
2018-05-16T06:55:42.306Z,3.73
2018-05-16T06:58:11.572Z,3.50
2018-05-16T07:00:40.890Z,2.50
2018-05-16T07:03:10.177Z,3.67
2018-05-16T07:05:39.458Z,5.13
2018-05-16T07:08:08.927Z,2.57
2018-05-16T07:10:38.285Z,3.40
2018-05-16T07:13:07.521Z,4.10
2018-05-16T07:15:36.801Z,2.90
2018-05-16T07:18:06.088Z,2.83
2018-05-16T07:20:35.348Z,4.20
2018-05-16T07:23:05.381Z,3.90
2018-05-16T07:25:34.641Z,3.93
2018-05-16T07:28:03.897Z,6.10
2018-05-16T07:30:33.193Z,2.70
2018-05-16T07:33:02.546Z,2.80
2018-05-16T07:35:31.826Z,5.80
2018-05-16T07:38:01.108Z,2.70
2018-05-16T07:40:30.368Z,2.87
2018-05-16T07:42:59.643Z,3.30
2018-05-16T07:45:29.858Z,2.63
2018-05-16T07:47:59.209Z,9.70
2018-05-16T07:50:28.429Z,3.20
2018-05-16T07:52:58.497Z,2.73
2018-05-16T07:55:28.522Z,3.63
2018-05-16T07:57:58.518Z,3.33
2018-05-16T08:00:27.808Z,2.30
2018-05-16T08:02:58.585Z,3.50
2018-05-16T08:05:27.818Z,4.40
2018-05-16T08:07:57.144Z,2.67
2018-05-16T08:10:26.391Z,3.23
2018-05-16T08:12:55.648Z,4.30
2018-05-16T08:15:24.931Z,4.60
2018-05-16T08:17:55.725Z,4.40
2018-05-16T08:20:25.004Z,5.00
2018-05-16T08:22:55.056Z,4.10
2018-05-16T08:25:24.315Z,2.70
2018-05-16T08:27:54.351Z,2.83
2018-05-16T08:30:23.625Z,7.00
2018-05-16T08:32:52.897Z,3.43
2018-05-16T08:35:22.150Z,3.13
2018-05-16T08:37:51.452Z,2.43
2018-05-16T08:40:20.716Z,2.37
2018-05-16T08:42:50.749Z,3.80
2018-05-16T08:45:20.790Z,4.23
2018-05-16T08:47:50.109Z,3.30
2018-05-16T08:50:19.387Z,6.53
2018-05-16T08:52:49.418Z,13.90
2018-05-16T08:55:18.714Z,4.30
2018-05-16T08:57:48.023Z,6.50
2018-05-16T09:00:18.035Z,15.93
2018-05-16T09:02:47.306Z,3.00
2018-05-16T09:05:17.333Z,5.33
2018-05-16T09:07:47.405Z,3.00
2018-05-16T09:10:16.664Z,2.80
2018-05-16T09:12:45.954Z,3.73
2018-05-16T09:15:15.216Z,3.77
2018-05-16T09:17:46.014Z,5.60
2018-05-16T09:20:15.394Z,3.50
2018-05-16T09:22:44.653Z,3.50
2018-05-16T09:25:14.068Z,4.67
2018-05-16T09:27:44.076Z,2.90
2018-05-16T09:30:13.375Z,5.13
2018-05-16T09:32:42.625Z,3.43
2018-05-16T09:35:11.907Z,6.73
2018-05-16T09:37:41.943Z,4.50
2018-05-16T09:40:11.285Z,3.30
2018-05-16T09:42:40.505Z,12.40
2018-05-16T09:45:10.563Z,3.00
2018-05-16T09:47:39.853Z,3.27
2018-05-16T09:50:09.114Z,4.10
2018-05-16T09:52:38.403Z,3.33
2018-05-16T09:55:07.682Z,6.40
2018-05-16T09:57:36.939Z,6.70
2018-05-16T10:00:07.007Z,3.43
2018-05-16T10:02:36.272Z,2.63
2018-05-16T10:05:05.562Z,2.20
2018-05-16T10:07:35.685Z,2.83
2018-05-16T10:10:05.097Z,6.30
2018-05-16T10:12:34.372Z,5.50
2018-05-16T10:15:04.396Z,4.87
2018-05-16T10:17:34.448Z,6.93
2018-05-16T10:20:03.726Z,4.00
2018-05-16T10:22:33.746Z,5.13
2018-05-16T10:25:03.003Z,4.43
2018-05-16T10:27:32.268Z,4.70
2018-05-16T10:30:01.553Z,3.13
2018-05-16T10:32:30.810Z,7.80
2018-05-16T10:35:00.200Z,5.03
2018-05-16T10:37:29.506Z,3.67
2018-05-16T10:39:58.774Z,3.80
2018-05-16T10:42:28.053Z,4.47
2018-05-16T10:44:57.308Z,3.13
2018-05-16T10:47:26.612Z,2.73
2018-05-16T10:49:55.877Z,2.60
2018-05-16T10:52:25.135Z,3.20
2018-05-16T10:54:55.451Z,3.30
2018-05-16T10:57:24.555Z,3.17
2018-05-16T10:59:54.502Z,4.63
2018-05-16T11:02:23.798Z,6.67
2018-05-16T11:04:53.220Z,6.17
2018-05-16T11:07:23.909Z,2.50
2018-05-16T11:09:53.946Z,3.60
2018-05-16T11:12:23.207Z,3.00
2018-05-16T11:14:53.364Z,5.50
2018-05-16T11:17:22.645Z,8.00
2018-05-16T11:19:52.707Z,4.37
2018-05-16T11:22:21.965Z,3.80
2018-05-16T11:24:51.238Z,3.80
2018-05-16T11:27:20.509Z,4.30
2018-05-16T11:29:50.524Z,3.63
2018-05-16T11:32:19.862Z,7.90
2018-05-16T11:34:49.289Z,3.80
2018-05-16T11:37:19.320Z,4.13
2018-05-16T11:39:48.601Z,3.33
2018-05-16T11:42:17.951Z,3.77
2018-05-16T11:44:47.189Z,7.60
2018-05-16T11:47:17.172Z,4.03
2018-05-16T11:49:47.252Z,4.37
2018-05-16T11:52:16.565Z,9.57
2018-05-16T11:54:45.828Z,4.03
2018-05-16T11:57:15.835Z,4.77
2018-05-16T11:59:45.148Z,3.63
2018-05-16T12:02:15.203Z,3.70
2018-05-16T12:04:44.455Z,3.13
2018-05-16T12:07:13.733Z,3.17
2018-05-16T12:09:43.002Z,2.97
2018-05-16T12:12:12.271Z,2.90
2018-05-16T12:14:42.337Z,3.90
2018-05-16T12:17:11.608Z,7.63
2018-05-16T12:19:41.638Z,3.30
2018-05-16T12:22:10.891Z,2.93
2018-05-16T12:24:40.949Z,3.13
2018-05-16T12:27:10.223Z,5.20
2018-05-16T12:29:40.270Z,3.47
2018-05-16T12:32:09.578Z,3.00
2018-05-16T12:34:38.863Z,5.97
2018-05-16T12:37:08.127Z,5.00
2018-05-16T12:42:12.842Z,4.03
2018-05-16T12:44:42.124Z,3.97
2018-05-16T12:47:11.394Z,4.47
2018-05-16T12:49:41.415Z,4.00
2018-05-16T12:52:10.693Z,7.63
2018-05-16T12:54:39.948Z,4.50
2018-05-16T12:57:09.198Z,4.23
2018-05-16T12:59:39.247Z,3.80
2018-05-16T13:02:08.528Z,3.93
2018-05-16T13:04:38.535Z,4.23
2018-05-16T13:07:08.608Z,9.37
2018-05-16T13:09:37.862Z,4.23
2018-05-16T13:12:07.147Z,4.80
2018-05-16T13:14:37.192Z,3.83
2018-05-16T13:17:07.216Z,4.83
2018-05-16T13:19:36.497Z,4.17
2018-05-16T13:22:06.533Z,3.30
2018-05-16T13:24:35.812Z,11.47
2018-05-16T13:27:05.875Z,3.10
2018-05-16T13:29:35.169Z,3.00
2018-05-16T13:32:04.466Z,6.73
2018-05-16T13:34:33.739Z,3.07
2018-05-16T13:37:03.001Z,6.50
2018-05-16T13:39:32.289Z,10.63
2018-05-16T13:42:01.656Z,4.50
2018-05-16T13:44:30.959Z,3.53
2018-05-16T13:47:00.232Z,8.23
2018-05-16T13:49:30.263Z,3.03
2018-05-16T13:51:59.531Z,3.87
2018-05-16T13:54:29.563Z,4.27
2018-05-16T13:56:59.583Z,5.60
2018-05-16T13:59:29.628Z,4.90
2018-05-16T14:01:58.911Z,3.97
2018-05-16T14:04:28.188Z,5.30
2018-05-16T14:06:57.432Z,3.77
2018-05-16T14:09:26.688Z,7.33
2018-05-16T14:11:56.736Z,5.70
2018-05-16T14:14:26.056Z,5.50
2018-05-16T14:16:55.298Z,3.30
2018-05-16T14:19:24.561Z,2.77
2018-05-16T14:21:53.844Z,2.80
2018-05-16T14:24:23.116Z,3.47
2018-05-16T14:26:53.165Z,2.47
2018-05-16T14:29:22.436Z,2.30
2018-05-16T14:31:52.499Z,3.43
2018-05-16T14:34:21.799Z,3.20
2018-05-16T14:36:51.063Z,3.03
2018-05-16T14:39:20.343Z,3.00
2018-05-16T14:41:50.382Z,3.83
2018-05-16T14:44:19.649Z,4.13
2018-05-16T14:46:48.942Z,4.60
2018-05-16T14:49:18.986Z,16.33
2018-05-16T14:51:49.093Z,3.77
2018-05-16T14:54:18.362Z,3.27
2018-05-16T14:56:47.619Z,3.27
2018-05-16T14:59:17.002Z,7.60
2018-05-16T15:01:47.109Z,13.77
2018-05-16T15:04:17.102Z,3.90
2018-05-16T15:06:46.401Z,3.10
2018-05-16T15:09:15.676Z,6.43
2018-05-16T15:11:44.972Z,4.40
2018-05-16T15:14:14.225Z,6.90
2018-05-16T15:16:43.504Z,4.50
2018-05-16T15:19:14.308Z,3.50
2018-05-16T15:21:44.257Z,4.50
2018-05-16T15:24:13.521Z,4.20
2018-05-16T15:26:42.779Z,4.10
2018-05-16T15:29:12.890Z,6.53
2018-05-16T15:31:42.143Z,7.33
2018-05-16T15:34:11.429Z,3.93
2018-05-16T15:36:40.702Z,4.70
2018-05-16T15:39:10.755Z,6.43
2018-05-16T15:41:40.118Z,4.70
2018-05-16T15:44:11.787Z,4.30
2018-05-16T15:46:41.856Z,3.13
2018-05-16T15:49:11.097Z,5.00
2018-05-16T15:51:40.434Z,3.13
2018-05-16T15:54:09.802Z,3.23
2018-05-16T15:56:40.090Z,3.20
2018-05-16T15:59:09.379Z,5.30
2018-05-16T16:01:38.883Z,5.90
2018-05-16T16:04:12.714Z,4.80
2018-05-16T16:06:41.984Z,3.73
2018-05-16T16:09:11.371Z,7.67
2018-05-16T16:11:40.885Z,4.47
2018-05-16T16:14:10.221Z,4.77
2018-05-16T16:16:39.511Z,10.03
2018-05-16T16:19:08.828Z,4.07
2018-05-16T16:21:39.712Z,3.97
2018-05-16T16:24:08.998Z,7.03
2018-05-16T16:26:38.302Z,4.27
2018-05-16T16:29:07.794Z,3.60
2018-05-16T16:31:37.118Z,5.30
2018-05-16T16:34:06.442Z,3.83
2018-05-16T16:36:35.814Z,8.43
2018-05-16T16:39:06.670Z,14.70
2018-05-16T16:41:35.872Z,3.37
2018-05-16T16:44:05.146Z,5.43
2018-05-16T16:46:34.403Z,3.43
2018-05-16T16:49:03.836Z,4.23
2018-05-16T16:51:33.118Z,4.37
2018-05-16T16:54:03.868Z,3.87
2018-05-16T16:56:33.898Z,6.47
2018-05-16T16:59:03.237Z,4.10
2018-05-16T17:01:32.530Z,3.67
2018-05-16T17:04:01.805Z,3.97
2018-05-16T17:06:31.849Z,5.30
2018-05-16T17:09:01.161Z,4.97
2018-05-16T17:11:30.432Z,6.23
2018-05-16T17:13:59.705Z,3.87
2018-05-16T17:16:29.816Z,6.20
2018-05-16T17:19:00.576Z,5.87
2018-05-16T17:21:29.909Z,4.20
2018-05-16T17:23:59.261Z,6.47
2018-05-16T17:26:29.539Z,3.33
2018-05-16T17:28:58.971Z,5.47
2018-05-16T17:31:28.229Z,4.23
2018-05-16T17:33:57.508Z,4.43
2018-05-16T17:36:27.536Z,4.70
2018-05-16T17:38:56.860Z,9.40
2018-05-16T17:41:26.133Z,3.93
2018-05-16T17:43:55.502Z,5.07
2018-05-16T17:46:25.555Z,7.80
2018-05-16T17:48:54.853Z,5.17
2018-05-16T17:51:24.297Z,3.77
2018-05-16T17:53:54.428Z,4.73
2018-05-16T17:56:23.759Z,4.60
2018-05-16T17:58:53.821Z,4.10
2018-05-16T18:01:23.115Z,5.80
2018-05-16T18:03:52.403Z,7.43
2018-05-16T18:06:21.780Z,4.90
2018-05-16T18:08:51.803Z,4.70
2018-05-16T18:11:21.098Z,3.70
2018-05-16T18:14:08.320Z,9.03
2018-05-16T18:16:56.323Z,7.83
2018-05-16T18:19:26.307Z,6.33
2018-05-16T18:21:55.578Z,4.47
2018-05-16T18:24:24.900Z,8.60
2018-05-16T18:26:54.175Z,5.07
2018-05-16T18:29:24.193Z,6.03
2018-05-16T18:31:54.105Z,10.03
2018-05-16T18:34:24.193Z,9.27
2018-05-16T18:36:53.528Z,4.23
2018-05-16T18:39:22.902Z,11.90
2018-05-16T18:41:53.211Z,4.77
2018-05-16T18:44:22.481Z,6.50
2018-05-16T18:46:51.766Z,6.67
2018-05-16T18:49:21.157Z,6.73
2018-05-16T18:51:50.339Z,11.43
2018-05-16T18:54:19.798Z,5.20
2018-05-16T18:56:49.029Z,7.43
2018-05-16T18:59:18.484Z,5.80
2018-05-16T19:01:47.965Z,11.93
2018-05-16T19:04:18.055Z,11.30
2018-05-16T19:06:47.334Z,11.80
2018-05-16T19:09:16.672Z,7.47
2018-05-16T19:11:46.734Z,5.20
2018-05-16T19:14:16.048Z,5.20
2018-05-16T19:16:46.863Z,8.93
2018-05-16T19:19:16.268Z,8.90
2018-05-16T19:21:45.679Z,7.87
2018-05-16T19:24:15.018Z,7.60
2018-05-16T19:26:45.103Z,13.63
2018-05-16T19:29:14.395Z,7.43
2018-05-16T19:31:43.692Z,8.10
2018-05-16T19:34:13.134Z,5.40
2018-05-16T19:36:42.542Z,5.90
2018-05-16T19:39:11.899Z,5.43
2018-05-16T19:41:41.218Z,5.93
2018-05-16T19:44:10.995Z,8.40
2018-05-16T19:46:41.085Z,10.97
2018-05-16T19:49:11.170Z,7.67
2018-05-16T19:51:44.396Z,6.77
2018-05-16T19:54:14.636Z,7.70
2018-05-16T19:56:43.886Z,8.77
2018-05-16T19:59:13.239Z,9.27
2018-05-16T20:01:43.388Z,12.43
2018-05-16T20:04:12.843Z,15.33
2018-05-16T20:06:42.473Z,5.87
2018-05-16T20:09:12.619Z,7.70
2018-05-16T20:11:41.836Z,8.27
2018-05-16T20:14:11.150Z,9.47
2018-05-16T20:16:40.499Z,19.77
2018-05-16T20:19:10.579Z,7.17
2018-05-16T20:21:40.701Z,8.03
2018-05-16T20:24:10.063Z,9.13
2018-05-16T20:26:39.527Z,7.23
2018-05-16T20:29:09.609Z,6.63
2018-05-16T20:31:38.935Z,8.10
2018-05-16T20:34:08.233Z,8.63
2018-05-16T20:36:37.548Z,6.80
2018-05-16T20:39:18.015Z,7.43
2018-05-16T20:41:49.392Z,7.60
2018-05-16T20:44:18.661Z,7.83
2018-05-16T20:46:48.708Z,7.33
2018-05-16T20:49:18.008Z,7.57
2018-05-16T20:51:47.397Z,8.60
2018-05-16T20:54:16.683Z,10.10
2018-05-16T20:56:45.984Z,9.40
2018-05-16T20:59:16.240Z,10.80
2018-05-16T21:01:45.522Z,10.23
2018-05-16T21:04:15.060Z,6.30
2018-05-16T21:06:44.345Z,7.83
2018-05-16T21:09:13.613Z,9.00
2018-05-16T21:11:43.686Z,8.37
2018-05-16T21:14:12.998Z,7.13
2018-05-16T21:16:42.334Z,10.20
2018-05-16T21:19:12.457Z,7.50
2018-05-16T21:21:41.994Z,6.80
2018-05-16T21:24:11.366Z,6.57
2018-05-16T21:26:40.702Z,7.80
2018-05-16T21:29:09.982Z,7.77
2018-05-16T21:31:39.216Z,9.23
2018-05-16T21:34:08.486Z,7.80
2018-05-16T21:36:37.774Z,7.73
2018-05-16T21:39:07.183Z,6.20
2018-05-16T21:41:36.473Z,9.37
2018-05-16T21:44:05.819Z,13.47
2018-05-16T21:46:35.126Z,4.40
2018-05-16T21:49:04.476Z,9.70
2018-05-16T21:51:34.501Z,4.80
2018-05-16T21:54:03.790Z,8.40
2018-05-16T21:56:34.047Z,4.50
2018-05-16T21:59:03.330Z,4.50
2018-05-16T22:01:32.595Z,4.83
2018-05-16T22:04:01.879Z,5.90
2018-05-16T22:06:31.173Z,6.50
2018-05-16T22:09:00.453Z,4.20
2018-05-16T22:11:29.708Z,4.10
2018-05-16T22:13:59.751Z,4.60
2018-05-16T22:16:29.055Z,6.83
2018-05-16T22:18:58.335Z,7.60
2018-05-16T22:21:28.361Z,4.63
2018-05-16T22:23:57.679Z,6.93
2018-05-16T22:26:26.981Z,5.77
2018-05-16T22:28:56.293Z,8.23
2018-05-16T22:31:31.049Z,6.50
2018-05-16T22:34:05.977Z,8.23
2018-05-16T22:36:41.497Z,5.83
2018-05-16T22:39:16.226Z,6.03
2018-05-16T22:41:50.937Z,5.00
2018-05-16T22:47:20.323Z,10.70
2018-05-16T22:49:50.386Z,10.07
2018-05-16T22:52:19.691Z,13.17
2018-05-16T22:54:49.032Z,9.30
2018-05-16T22:57:19.090Z,9.50
2018-05-16T22:59:48.416Z,16.33
2018-05-16T23:02:17.667Z,9.40
2018-05-16T23:04:47.834Z,11.13
2018-05-16T23:07:18.077Z,12.40
2018-05-16T23:09:47.390Z,18.93
2018-05-16T23:12:17.694Z,11.60
2018-05-16T23:14:46.959Z,12.30
2018-05-16T23:17:16.190Z,17.10
2018-05-16T23:19:46.316Z,20.03
2018-05-16T23:22:15.585Z,19.93
2018-05-16T23:24:44.866Z,16.23
2018-05-16T23:27:14.181Z,20.60
2018-05-16T23:29:43.458Z,35.30
2018-05-16T23:32:13.500Z,25.13
2018-05-16T23:34:42.770Z,19.50
2018-05-16T23:37:12.901Z,13.37
2018-05-16T23:39:42.165Z,22.93
2018-05-16T23:42:11.495Z,28.40
2018-05-16T23:44:41.546Z,28.93
2018-05-16T23:47:10.882Z,20.13
2018-05-16T23:49:40.187Z,23.10
2018-05-16T23:52:09.462Z,21.50
2018-05-16T23:54:38.880Z,25.30
2018-05-16T23:57:08.149Z,20.63
2018-05-16T23:59:37.417Z,19.43
